createdAt,value
2023-04-22T00:00:48.097Z,5.40
2023-04-22T00:03:15.075Z,7.20
2023-04-22T00:05:42.678Z,10.30
2023-04-22T00:08:09.413Z,6.80
2023-04-22T00:10:36.087Z,7.80
2023-04-22T00:13:02.751Z,5.90
2023-04-22T00:15:29.464Z,9.50
2023-04-22T00:17:57.639Z,8.20
2023-04-22T00:20:25.684Z,6.30
2023-04-22T00:25:19.370Z,15.10
2023-04-22T00:27:46.208Z,14.90
2023-04-22T00:30:13.528Z,12.50
2023-04-22T00:32:40.138Z,13.90
2023-04-22T00:35:07.755Z,11.50
2023-04-22T00:37:34.944Z,10.70
2023-04-22T00:40:01.599Z,8.10
2023-04-22T00:42:28.605Z,7.30
2023-04-22T00:44:55.511Z,8.20
2023-04-22T00:47:26.939Z,11.30
2023-04-22T00:49:55.152Z,9.20
2023-04-22T00:54:49.677Z,21.80
2023-04-22T00:57:18.490Z,27.20
2023-04-22T00:59:45.917Z,16.90
2023-04-22T01:02:13.230Z,19.70
2023-04-22T01:04:40.278Z,13.00
2023-04-22T01:07:07.238Z,14.60
2023-04-22T01:09:35.005Z,13.00
2023-04-22T01:12:02.467Z,14.60
2023-04-22T01:14:29.349Z,8.40
2023-04-22T01:16:57.981Z,10.40
2023-04-22T01:19:26.018Z,7.30
2023-04-22T01:21:54.434Z,6.60
2023-04-22T01:24:21.326Z,5.30
2023-04-22T01:26:49.539Z,5.70
2023-04-22T01:29:16.245Z,6.50
2023-04-22T01:31:43.512Z,5.50
2023-04-22T01:34:11.215Z,6.80
2023-04-22T01:36:38.397Z,6.30
2023-04-22T01:39:05.081Z,6.00
2023-04-22T01:41:31.981Z,5.60
2023-04-22T01:44:01.162Z,5.10
2023-04-22T01:46:27.936Z,9.10
2023-04-22T01:48:54.606Z,6.40
2023-04-22T01:51:23.588Z,5.70
2023-04-22T01:53:51.200Z,4.60
2023-04-22T01:56:18.543Z,5.10
2023-04-22T01:58:45.182Z,7.10
2023-04-22T02:01:14.355Z,7.20
2023-04-22T02:03:41.799Z,8.30
2023-04-22T02:06:10.341Z,7.00
2023-04-22T02:08:37.019Z,8.20
2023-04-22T02:11:03.978Z,6.20
2023-04-22T02:13:38.849Z,7.40
2023-04-22T02:16:07.086Z,7.70
2023-04-22T02:18:34.254Z,9.20
2023-04-22T02:21:00.890Z,5.50
2023-04-22T02:23:28.058Z,4.80
2023-04-22T02:25:55.968Z,5.50
2023-04-22T02:30:49.658Z,5.80
2023-04-22T02:33:16.301Z,5.00
2023-04-22T02:35:42.886Z,6.30
2023-04-22T02:38:10.909Z,9.80
2023-04-22T02:43:04.804Z,7.10
2023-04-22T02:45:31.697Z,7.40
2023-04-22T02:47:58.481Z,9.70
2023-04-22T02:50:25.215Z,8.10
2023-04-22T02:52:52.081Z,8.40
2023-04-22T02:55:18.838Z,6.40
2023-04-22T02:57:46.014Z,6.10
2023-04-22T03:00:13.456Z,6.90
2023-04-22T03:02:40.331Z,5.10
2023-04-22T03:05:14.916Z,4.80
2023-04-22T03:07:41.659Z,6.30
2023-04-22T03:10:09.453Z,7.10
2023-04-22T03:12:36.085Z,6.20
2023-04-22T03:15:03.750Z,6.40
2023-04-22T03:17:31.455Z,7.50
2023-04-22T03:19:59.392Z,6.30
2023-04-22T03:22:26.267Z,7.10
2023-04-22T03:27:21.309Z,6.60
2023-04-22T03:29:47.902Z,5.80
2023-04-22T03:32:14.770Z,8.80
2023-04-22T03:34:41.725Z,7.90
2023-04-22T03:37:09.772Z,7.50
2023-04-22T03:42:04.455Z,8.40
2023-04-22T03:44:32.235Z,8.30
2023-04-22T03:46:58.869Z,7.40
2023-04-22T03:49:29.655Z,6.30
2023-04-22T03:51:56.600Z,5.20
2023-04-22T03:54:25.379Z,8.20
2023-04-22T03:56:52.639Z,8.60
2023-04-22T03:59:21.131Z,5.80
2023-04-22T04:01:48.729Z,7.20
2023-04-22T04:04:16.339Z,7.50
2023-04-22T04:06:51.482Z,6.80
2023-04-22T04:09:18.121Z,6.20
2023-04-22T04:11:45.525Z,8.80
2023-04-22T04:14:12.714Z,7.30
2023-04-22T04:16:46.015Z,8.00
2023-04-22T04:19:17.668Z,6.90
2023-04-22T04:21:44.282Z,6.90
2023-04-22T04:24:11.046Z,5.30
2023-04-22T04:26:42.471Z,5.40
2023-04-22T04:29:13.789Z,7.00
2023-04-22T04:31:42.716Z,7.80
2023-04-22T04:34:09.927Z,7.30
2023-04-22T04:36:39.929Z,6.60
2023-04-22T04:39:29.194Z,6.30
2023-04-22T04:41:58.800Z,8.60
2023-04-22T04:44:31.687Z,6.10
2023-04-22T04:46:58.876Z,5.10
2023-04-22T04:49:26.355Z,7.00
2023-04-22T04:52:01.829Z,6.20
2023-04-22T04:54:29.153Z,6.50
2023-04-22T04:56:57.443Z,7.00
2023-04-22T04:59:24.369Z,7.20
2023-04-22T05:01:51.547Z,6.70
2023-04-22T05:04:18.432Z,9.00
2023-04-22T05:06:45.417Z,6.20
2023-04-22T05:11:40.477Z,7.40
2023-04-22T05:14:18.543Z,8.40
2023-04-22T05:16:46.043Z,6.80
2023-04-22T05:19:13.326Z,6.80
2023-04-22T05:21:40.997Z,6.30
2023-04-22T05:24:07.773Z,11.20
2023-04-22T05:26:34.524Z,10.50
2023-04-22T05:29:01.911Z,8.70
2023-04-22T05:31:29.122Z,8.00
2023-04-22T05:33:56.720Z,9.20
2023-04-22T05:36:23.769Z,5.70
2023-04-22T05:38:50.506Z,7.20
2023-04-22T05:41:17.114Z,10.70
2023-04-22T05:43:44.062Z,6.90
2023-04-22T05:46:15.231Z,7.40
2023-04-22T05:48:42.490Z,8.60
2023-04-22T05:51:15.954Z,9.10
2023-04-22T05:53:42.639Z,7.50
2023-04-22T05:56:10.314Z,9.10
2023-04-22T05:58:38.081Z,7.20
2023-04-22T06:01:11.600Z,6.60
2023-04-22T06:03:46.943Z,6.50
2023-04-22T06:06:13.963Z,11.30
2023-04-22T06:08:42.623Z,7.40
2023-04-22T06:11:11.780Z,6.10
2023-04-22T06:18:38.486Z,7.80
2023-04-22T06:21:07.981Z,10.40
2023-04-22T06:23:37.044Z,7.40
2023-04-22T06:26:04.273Z,7.70
2023-04-22T06:28:31.145Z,10.00
2023-04-22T06:31:02.013Z,10.00
2023-04-22T06:33:29.184Z,9.20
2023-04-22T06:35:55.764Z,5.80
2023-04-22T06:38:22.444Z,7.10
2023-04-22T06:41:09.706Z,10.30
2023-04-22T06:43:40.160Z,6.90
2023-04-22T06:46:10.580Z,5.40
2023-04-22T06:51:49.942Z,6.00
2023-04-22T06:54:17.220Z,9.30
2023-04-22T06:56:44.202Z,8.00
2023-04-22T06:59:10.827Z,9.20
2023-04-22T07:01:37.739Z,7.00
2023-04-22T07:04:04.578Z,7.80
2023-04-22T07:06:31.291Z,8.30
2023-04-22T07:08:58.041Z,6.10
2023-04-22T07:11:24.674Z,6.80
2023-04-22T07:14:14.017Z,6.80
2023-04-22T07:16:40.985Z,8.30
2023-04-22T07:19:07.922Z,7.60
2023-04-22T07:21:34.551Z,6.20
2023-04-22T07:24:01.108Z,10.20
2023-04-22T07:26:27.760Z,9.80
2023-04-22T07:28:54.336Z,8.20
2023-04-22T07:31:20.982Z,8.70
2023-04-22T07:33:47.669Z,8.80
2023-04-22T07:36:14.260Z,9.60
2023-04-22T07:38:40.991Z,8.00
2023-04-22T07:41:07.601Z,8.50
2023-04-22T07:43:34.205Z,11.00
2023-04-22T07:46:00.834Z,10.60
2023-04-22T07:48:27.466Z,8.20
2023-04-22T07:50:54.054Z,9.80
2023-04-22T07:53:20.814Z,10.50
2023-04-22T07:55:49.519Z,8.80
2023-04-22T07:58:17.290Z,9.00
2023-04-22T08:00:44.009Z,8.80
2023-04-22T08:03:11.033Z,11.30
2023-04-22T08:05:38.184Z,10.00
2023-04-22T08:08:06.234Z,11.10
2023-04-22T08:10:33.408Z,11.50
2023-04-22T08:13:00.478Z,9.80
2023-04-22T08:15:27.235Z,10.00
2023-04-22T08:17:53.923Z,10.90
2023-04-22T08:20:20.810Z,6.90
2023-04-22T08:22:47.453Z,10.50
2023-04-22T08:25:14.226Z,9.70
2023-04-22T08:27:40.858Z,10.20
2023-04-22T08:30:08.517Z,8.60
2023-04-22T08:32:35.518Z,9.00
2023-04-22T08:35:05.285Z,11.80
2023-04-22T08:37:32.736Z,9.50
2023-04-22T08:39:59.316Z,8.30
2023-04-22T08:42:27.735Z,9.80
2023-04-22T08:44:54.951Z,11.60
2023-04-22T08:47:22.032Z,8.40
2023-04-22T08:49:53.252Z,9.10
2023-04-22T08:52:20.004Z,7.70
2023-04-22T08:54:50.309Z,13.00
2023-04-22T08:57:18.659Z,10.00
2023-04-22T08:59:46.467Z,8.70
2023-04-22T09:02:20.965Z,8.40
2023-04-22T09:04:51.549Z,9.20
2023-04-22T09:07:28.396Z,9.50
2023-04-22T09:09:56.411Z,7.60
2023-04-22T09:12:25.019Z,8.70
2023-04-22T09:14:54.485Z,6.50
2023-04-22T09:17:33.345Z,10.90
2023-04-22T09:20:02.299Z,9.80
2023-04-22T09:22:42.628Z,8.90
2023-04-22T09:25:24.365Z,8.90
2023-04-22T09:27:58.552Z,8.80
2023-04-22T09:30:37.685Z,10.60
2023-04-22T09:33:07.510Z,8.40
2023-04-22T09:35:40.516Z,11.60
2023-04-22T09:38:10.721Z,10.10
2023-04-22T09:40:43.171Z,9.20
2023-04-22T09:43:10.781Z,8.20
2023-04-22T09:45:42.843Z,9.20
2023-04-22T09:48:19.117Z,10.60
2023-04-22T09:50:49.951Z,7.50
2023-04-22T09:53:20.985Z,6.70
2023-04-22T09:55:53.961Z,9.90
2023-04-22T09:58:23.987Z,6.40
2023-04-22T10:00:56.035Z,12.70
2023-04-22T10:03:23.100Z,9.00
2023-04-22T10:05:49.810Z,10.10
2023-04-22T10:08:17.214Z,8.80
2023-04-22T10:10:44.744Z,9.00
2023-04-22T10:13:11.399Z,5.60
2023-04-22T10:15:42.763Z,8.90
2023-04-22T10:18:16.624Z,8.40
2023-04-22T10:20:45.858Z,8.60
2023-04-22T10:23:21.316Z,6.90
2023-04-22T10:25:51.450Z,11.20
2023-04-22T10:28:19.432Z,8.40
2023-04-22T10:30:46.515Z,10.10
2023-04-22T10:33:27.479Z,6.20
2023-04-22T10:36:18.220Z,10.40
2023-04-22T10:38:50.931Z,7.00
2023-04-22T10:41:24.210Z,10.30
2023-04-22T10:44:00.293Z,8.40
2023-04-22T10:46:33.005Z,5.90
2023-04-22T10:49:22.097Z,8.10
2023-04-22T10:51:52.736Z,5.80
2023-04-22T10:54:26.497Z,6.80
2023-04-22T10:57:07.712Z,7.70
2023-04-22T10:59:53.109Z,9.20
2023-04-22T11:02:22.046Z,8.00
2023-04-22T11:04:49.747Z,8.00
2023-04-22T11:07:20.731Z,6.70
2023-04-22T11:09:52.106Z,6.30
2023-04-22T11:12:42.003Z,5.50
2023-04-22T11:15:18.323Z,4.90
2023-04-22T11:17:52.458Z,8.20
2023-04-22T11:20:20.580Z,8.80
2023-04-22T11:22:51.873Z,6.80
2023-04-22T11:25:20.212Z,5.60
2023-04-22T11:27:47.768Z,7.80
2023-04-22T11:30:17.176Z,6.10
2023-04-22T11:32:46.967Z,4.40
2023-04-22T11:35:23.907Z,5.50
2023-04-22T11:38:00.401Z,7.50
2023-04-22T11:40:38.299Z,6.90
2023-04-22T11:43:09.728Z,6.20
2023-04-22T11:45:39.284Z,6.20
2023-04-22T11:48:11.197Z,5.20
2023-04-22T11:50:41.045Z,6.30
2023-04-22T11:53:24.002Z,6.10
2023-04-22T11:55:52.060Z,7.60
2023-04-22T11:58:26.684Z,5.00
2023-04-22T12:00:56.289Z,6.30
2023-04-22T12:03:26.846Z,6.60
2023-04-22T12:06:03.639Z,5.60
2023-04-22T12:08:44.294Z,4.80
2023-04-22T12:11:12.709Z,5.80
2023-04-22T12:13:41.174Z,6.20
2023-04-22T12:16:17.620Z,5.80
2023-04-22T12:18:55.593Z,4.10
2023-04-22T12:21:28.697Z,5.80
2023-04-22T12:24:08.468Z,4.10
2023-04-22T12:26:35.086Z,4.60
2023-04-22T12:29:01.696Z,4.40
2023-04-22T12:31:28.587Z,4.90
2023-04-22T12:33:56.170Z,4.00
2023-04-22T12:36:23.806Z,4.90
2023-04-22T12:41:17.733Z,5.90
2023-04-22T12:43:44.473Z,7.00
2023-04-22T12:46:11.273Z,4.80
2023-04-22T12:48:38.166Z,4.80
2023-04-22T12:51:07.015Z,4.50
2023-04-22T12:53:34.075Z,4.90
2023-04-22T12:56:01.004Z,4.40
2023-04-22T12:58:27.628Z,6.80
2023-04-22T13:00:54.266Z,5.50
2023-04-22T13:03:21.038Z,4.40
2023-04-22T13:05:47.898Z,4.00
2023-04-22T13:08:15.032Z,6.20
2023-04-22T13:10:41.670Z,3.90
2023-04-22T13:15:38.947Z,4.10
2023-04-22T13:20:33.238Z,4.30
2023-04-22T13:22:59.852Z,3.90
2023-04-22T13:25:26.419Z,4.10
2023-04-22T13:27:53.142Z,4.50
2023-04-22T13:30:20.159Z,5.00
2023-04-22T13:32:46.996Z,3.90
2023-04-22T13:35:13.785Z,4.40
2023-04-22T13:37:40.496Z,4.00
2023-04-22T13:40:08.657Z,3.70
2023-04-22T13:42:35.825Z,6.00
2023-04-22T13:45:02.463Z,7.50
2023-04-22T13:47:29.418Z,5.80
2023-04-22T13:49:57.817Z,3.70
2023-04-22T13:52:24.746Z,4.20
2023-04-22T13:54:51.428Z,3.30
2023-04-22T13:57:18.225Z,5.10
2023-04-22T13:59:44.832Z,3.60
2023-04-22T14:02:11.487Z,4.20
2023-04-22T14:04:38.063Z,4.40
2023-04-22T14:07:05.087Z,3.50
2023-04-22T14:09:31.757Z,3.90
2023-04-22T14:11:59.046Z,4.70
2023-04-22T14:14:25.945Z,5.20
2023-04-22T14:16:52.928Z,4.20
2023-04-22T14:19:20.187Z,4.90
2023-04-22T14:21:47.586Z,3.90
2023-04-22T14:24:14.586Z,4.40
2023-04-22T14:26:41.602Z,5.00
2023-04-22T14:29:08.620Z,4.00
2023-04-22T14:31:35.365Z,4.70
2023-04-22T14:34:02.092Z,4.00
2023-04-22T14:36:28.854Z,4.10
2023-04-22T14:38:55.460Z,4.80
2023-04-22T14:41:22.278Z,3.60
2023-04-22T14:43:48.918Z,3.40
2023-04-22T14:46:15.625Z,3.20
2023-04-22T14:48:42.504Z,5.40
2023-04-22T14:51:09.292Z,3.10
2023-04-22T14:53:36.243Z,2.60
2023-04-22T14:56:03.581Z,3.50
2023-04-22T14:58:33.211Z,3.20
2023-04-22T15:01:00.219Z,3.90
2023-04-22T15:03:27.693Z,3.20
2023-04-22T15:05:55.718Z,4.90
2023-04-22T15:08:25.159Z,4.60
2023-04-22T15:10:51.940Z,3.30
2023-04-22T15:13:19.780Z,4.10
2023-04-22T15:15:47.151Z,5.80
2023-04-22T15:18:14.196Z,3.50
2023-04-22T15:20:41.308Z,2.80
2023-04-22T15:23:07.999Z,3.90
2023-04-22T15:25:35.805Z,3.10
2023-04-22T15:28:04.186Z,3.70
2023-04-22T15:30:31.065Z,3.40
2023-04-22T15:32:57.910Z,3.70
2023-04-22T15:35:24.758Z,3.40
2023-04-22T15:37:52.702Z,4.00
2023-04-22T15:40:19.434Z,4.60
2023-04-22T15:42:46.026Z,4.50
2023-04-22T15:45:12.646Z,3.50
2023-04-22T15:47:41.210Z,4.50
2023-04-22T15:50:10.136Z,4.00
2023-04-22T15:52:38.499Z,3.80
2023-04-22T15:55:07.663Z,3.20
2023-04-22T15:57:35.402Z,4.60
2023-04-22T16:00:13.475Z,5.40
2023-04-22T16:02:43.415Z,2.90
2023-04-22T16:05:11.877Z,4.40
2023-04-22T16:07:40.295Z,4.00
2023-04-22T16:10:09.015Z,4.80
2023-04-22T16:12:35.826Z,4.50
2023-04-22T16:15:02.588Z,2.70
2023-04-22T16:17:30.175Z,3.30
2023-04-22T16:19:57.114Z,3.20
2023-04-22T16:22:23.876Z,3.50
2023-04-22T16:24:51.245Z,4.20
2023-04-22T16:27:19.277Z,4.10
2023-04-22T16:29:46.153Z,4.30
2023-04-22T16:32:14.047Z,3.20
2023-04-22T16:34:40.805Z,5.10
2023-04-22T16:37:08.114Z,3.90
2023-04-22T16:39:34.766Z,4.00
2023-04-22T16:42:02.865Z,5.00
2023-04-22T16:44:29.637Z,4.10
2023-04-22T16:46:56.297Z,3.60
2023-04-22T16:49:23.008Z,6.40
2023-04-22T16:51:49.937Z,4.90
2023-04-22T16:54:16.563Z,4.10
2023-04-22T16:56:43.199Z,4.10
2023-04-22T16:59:09.816Z,4.50
2023-04-22T17:01:36.502Z,5.50
2023-04-22T17:04:03.343Z,4.70
2023-04-22T17:06:31.237Z,5.20
2023-04-22T17:08:59.866Z,7.00
2023-04-22T17:11:26.601Z,4.30
2023-04-22T17:13:53.339Z,7.40
2023-04-22T17:16:20.002Z,3.70
2023-04-22T17:18:47.111Z,4.70
2023-04-22T17:21:14.996Z,5.50
2023-04-22T17:26:08.620Z,6.80
2023-04-22T17:28:35.624Z,7.10
2023-04-22T17:31:03.854Z,6.10
2023-04-22T17:33:31.255Z,7.90
2023-04-22T17:35:57.938Z,5.10
2023-04-22T17:38:24.581Z,9.20
2023-04-22T17:40:51.236Z,7.80
2023-04-22T17:43:17.807Z,5.50
2023-04-22T17:45:44.456Z,9.50
2023-04-22T17:48:11.019Z,7.00
2023-04-22T17:50:37.816Z,6.30
2023-04-22T17:53:04.400Z,6.70
2023-04-22T17:55:35.030Z,8.60
2023-04-22T17:58:03.774Z,7.90
2023-04-22T18:00:32.871Z,9.90
2023-04-22T18:03:00.006Z,6.60
2023-04-22T18:05:27.348Z,6.40
2023-04-22T18:08:01.675Z,8.10
2023-04-22T18:10:30.607Z,7.20
2023-04-22T18:12:57.559Z,6.00
2023-04-22T18:15:24.257Z,7.50
2023-04-22T18:17:51.546Z,8.60
2023-04-22T18:20:19.890Z,7.40
2023-04-22T18:22:49.117Z,7.70
2023-04-22T18:25:16.418Z,8.10
2023-04-22T18:27:43.946Z,9.00
2023-04-22T18:30:11.295Z,6.00
2023-04-22T18:32:38.596Z,5.40
2023-04-22T18:35:06.418Z,6.00
2023-04-22T18:37:34.888Z,6.30
2023-04-22T18:40:02.598Z,6.40
2023-04-22T18:42:30.025Z,9.40
2023-04-22T18:44:56.679Z,8.20
2023-04-22T18:47:23.335Z,7.20
2023-04-22T18:49:50.110Z,6.60
2023-04-22T18:52:17.269Z,8.40
2023-04-22T18:54:44.495Z,7.00
2023-04-22T18:57:11.221Z,7.00
2023-04-22T18:59:38.233Z,6.70
2023-04-22T19:02:06.428Z,7.90
2023-04-22T19:04:33.259Z,8.60
2023-04-22T19:07:00.200Z,8.80
2023-04-22T19:09:27.031Z,6.70
2023-04-22T19:11:53.691Z,8.00
2023-04-22T19:14:20.657Z,8.00
2023-04-22T19:16:47.271Z,7.40
2023-04-22T19:19:13.968Z,5.70
2023-04-22T19:21:41.080Z,7.30
2023-04-22T19:24:09.124Z,6.60
2023-04-22T19:26:35.867Z,7.50
2023-04-22T19:29:02.543Z,6.40
2023-04-22T19:31:29.497Z,6.80
2023-04-22T19:33:56.193Z,6.80
2023-04-22T19:36:23.051Z,7.80
2023-04-22T19:38:49.798Z,6.60
2023-04-22T19:41:16.688Z,6.30
2023-04-22T19:43:43.442Z,7.90
2023-04-22T19:46:10.136Z,9.20
2023-04-22T19:48:37.321Z,8.40
2023-04-22T19:51:06.774Z,7.10
2023-04-22T19:53:34.997Z,10.20
2023-04-22T19:56:03.054Z,83.90
2023-04-22T20:03:25.235Z,63.00
2023-04-22T20:08:20.400Z,33.70
2023-04-22T20:10:49.725Z,30.30
2023-04-22T20:13:17.491Z,22.80
2023-04-22T20:15:44.687Z,14.10
2023-04-22T20:18:12.114Z,27.20
2023-04-22T20:20:40.767Z,58.40
2023-04-22T20:23:12.720Z,81.90
2023-04-22T20:25:45.953Z,80.60
2023-04-22T20:28:13.063Z,59.00
2023-04-22T20:30:40.792Z,32.90
2023-04-22T20:33:07.851Z,25.80
2023-04-22T20:35:35.961Z,9.70
2023-04-22T20:38:03.795Z,9.20
2023-04-22T20:40:30.979Z,7.00
2023-04-22T20:43:01.059Z,11.70
2023-04-22T20:45:28.664Z,10.10
2023-04-22T20:47:57.759Z,7.80
2023-04-22T20:50:24.680Z,8.40
2023-04-22T20:52:52.570Z,7.60
2023-04-22T20:57:46.852Z,6.50
2023-04-22T21:00:14.489Z,5.10
2023-04-22T21:02:43.498Z,7.10
2023-04-22T21:05:11.901Z,7.00
2023-04-22T21:07:40.055Z,6.10
2023-04-22T21:10:08.396Z,6.80
2023-04-22T21:12:35.855Z,6.70
2023-04-22T21:15:03.274Z,7.00
2023-04-22T21:17:31.973Z,9.10
2023-04-22T21:19:59.517Z,9.10
2023-04-22T21:22:26.771Z,7.40
2023-04-22T21:24:54.080Z,8.30
2023-04-22T21:27:22.288Z,7.50
2023-04-22T21:29:50.166Z,6.00
2023-04-22T21:32:20.007Z,6.20
2023-04-22T21:34:46.717Z,8.30
2023-04-22T21:37:13.836Z,8.50
2023-04-22T21:39:40.906Z,6.50
2023-04-22T21:42:08.683Z,7.20
2023-04-22T21:44:37.758Z,6.90
2023-04-22T21:47:05.656Z,5.80
2023-04-22T21:49:32.547Z,8.40
2023-04-22T21:51:59.641Z,8.30
2023-04-22T21:54:26.459Z,7.30
2023-04-22T21:56:53.204Z,9.00
2023-04-22T21:59:19.917Z,9.00
2023-04-22T22:01:46.754Z,10.70
2023-04-22T22:04:16.148Z,11.20
2023-04-22T22:06:45.043Z,10.40
2023-04-22T22:09:14.232Z,9.20
2023-04-22T22:11:40.925Z,8.50
2023-04-22T22:14:07.506Z,13.10
2023-04-22T22:16:34.434Z,7.60
2023-04-22T22:19:02.748Z,9.10
2023-04-22T22:21:29.678Z,7.90
2023-04-22T22:23:57.571Z,9.10
2023-04-22T22:26:24.607Z,6.70
2023-04-22T22:28:51.245Z,7.60
2023-04-22T22:31:18.406Z,7.30
2023-04-22T22:33:45.761Z,6.90
2023-04-22T22:36:12.520Z,7.70
2023-04-22T22:38:39.163Z,7.80
2023-04-22T22:41:05.822Z,7.30
2023-04-22T22:43:32.442Z,8.30
2023-04-22T22:45:59.126Z,8.00
2023-04-22T22:48:26.052Z,11.60
2023-04-22T22:50:53.053Z,18.20
2023-04-22T22:53:21.298Z,11.50
2023-04-22T22:55:47.881Z,16.00
2023-04-22T22:58:14.462Z,11.40
2023-04-22T23:00:41.094Z,15.40
2023-04-22T23:03:07.992Z,9.90
2023-04-22T23:05:34.769Z,13.70
2023-04-22T23:08:01.351Z,15.80
2023-04-22T23:10:27.925Z,15.60
2023-04-22T23:12:54.504Z,17.50
2023-04-22T23:15:21.171Z,15.50
2023-04-22T23:17:50.752Z,12.50
2023-04-22T23:20:18.231Z,16.20
2023-04-22T23:22:45.569Z,17.10
2023-04-22T23:25:13.641Z,16.90
2023-04-22T23:27:41.710Z,16.80
2023-04-22T23:30:09.429Z,12.00
2023-04-22T23:32:40.534Z,7.10
2023-04-22T23:35:13.922Z,10.50
2023-04-22T23:37:45.473Z,9.30
2023-04-22T23:40:13.460Z,7.00
2023-04-22T23:45:08.165Z,13.60
2023-04-22T23:50:02.717Z,14.60
2023-04-22T23:52:29.365Z,15.00
2023-04-22T23:54:57.728Z,11.10
2023-04-22T23:57:24.933Z,15.40
2023-04-22T23:59:52.252Z,14.50
